createdAt,value
2023-01-10T00:00:35.551Z,8.31
2023-01-10T00:03:02.976Z,8.31
2023-01-10T00:05:29.492Z,8.33
2023-01-10T00:07:58.921Z,8.34
2023-01-10T00:10:25.968Z,8.35
2023-01-10T00:13:10.999Z,8.37
2023-01-10T00:15:37.749Z,8.41
2023-01-10T00:18:04.473Z,8.31
2023-01-10T00:20:31.542Z,8.36
2023-01-10T00:22:58.032Z,8.43
2023-01-10T00:25:24.813Z,8.35
2023-01-10T00:28:02.169Z,8.38
2023-01-10T00:30:28.751Z,8.33
2023-01-10T00:32:56.729Z,8.33
2023-01-10T00:35:23.336Z,8.26
2023-01-10T00:37:49.768Z,8.24
2023-01-10T00:40:16.327Z,8.23
2023-01-10T00:43:01.291Z,8.24
2023-01-10T00:45:27.724Z,8.21
2023-01-10T00:47:54.131Z,8.32
2023-01-10T00:50:20.581Z,8.35
2023-01-10T00:52:46.949Z,8.35
2023-01-10T00:55:13.358Z,8.38
2023-01-10T00:57:39.779Z,8.41
2023-01-10T01:00:09.068Z,8.46
2023-01-10T01:02:36.401Z,8.42
2023-01-10T01:05:03.802Z,8.30
2023-01-10T01:07:30.392Z,8.30
2023-01-10T01:10:16.256Z,8.32
2023-01-10T01:12:43.015Z,8.40
2023-01-10T01:15:09.526Z,8.43
2023-01-10T01:17:36.576Z,8.49
2023-01-10T01:20:03.209Z,8.48
2023-01-10T01:22:29.612Z,8.44
2023-01-10T01:24:56.592Z,8.38
2023-01-10T01:27:22.942Z,8.30
2023-01-10T01:29:49.418Z,8.18
2023-01-10T01:32:16.139Z,8.08
2023-01-10T01:34:42.578Z,8.09
2023-01-10T01:37:09.044Z,8.03
2023-01-10T01:39:35.658Z,7.89
2023-01-10T01:42:02.227Z,7.84
2023-01-10T01:44:33.861Z,7.83
2023-01-10T01:47:05.915Z,7.79
2023-01-10T01:49:36.973Z,7.78
2023-01-10T01:52:08.454Z,7.84
2023-01-10T01:54:35.536Z,7.79
2023-01-10T01:57:14.833Z,7.72
2023-01-10T01:59:47.524Z,7.80
2023-01-10T02:02:20.777Z,7.77
2023-01-10T02:04:55.997Z,7.76
2023-01-10T02:07:24.113Z,7.76
2023-01-10T02:09:55.428Z,7.83
2023-01-10T02:12:22.914Z,7.84
2023-01-10T02:14:51.068Z,7.74
2023-01-10T02:17:18.392Z,7.70
2023-01-10T02:19:44.688Z,7.76
2023-01-10T02:23:05.596Z,7.82
2023-01-10T02:25:55.680Z,7.88
2023-01-10T02:28:43.696Z,7.79
2023-01-10T02:31:31.354Z,7.79
2023-01-10T02:34:11.488Z,7.74
2023-01-10T02:36:49.196Z,7.77
2023-01-10T02:39:15.721Z,7.70
2023-01-10T02:41:50.054Z,7.60
2023-01-10T02:44:36.767Z,7.61
2023-01-10T02:47:04.729Z,7.68
2023-01-10T02:49:31.159Z,7.68
2023-01-10T02:51:57.545Z,7.70
2023-01-10T02:54:30.680Z,7.65
2023-01-10T02:57:25.321Z,7.63
2023-01-10T03:00:20.602Z,7.59
2023-01-10T03:02:58.146Z,7.60
2023-01-10T03:05:55.367Z,7.53
2023-01-10T03:08:34.575Z,7.60
2023-01-10T03:11:04.338Z,7.64
2023-01-10T03:13:34.516Z,7.60
2023-01-10T03:16:03.114Z,7.62
2023-01-10T03:18:36.260Z,7.61
2023-01-10T03:21:05.810Z,7.55
2023-01-10T03:23:34.857Z,7.54
2023-01-10T03:26:03.346Z,7.46
2023-01-10T03:28:35.792Z,7.41
2023-01-10T03:31:09.999Z,7.38
2023-01-10T03:33:37.464Z,7.42
2023-01-10T03:36:23.006Z,7.53
2023-01-10T03:39:02.843Z,7.58
2023-01-10T03:41:58.585Z,7.54
2023-01-10T03:44:43.689Z,7.41
2023-01-10T03:47:24.204Z,7.37
2023-01-10T03:49:58.649Z,7.37
2023-01-10T03:52:26.079Z,7.45
2023-01-10T03:54:53.830Z,7.42
2023-01-10T03:57:22.465Z,7.37
2023-01-10T03:59:57.927Z,7.35
2023-01-10T04:02:27.420Z,7.31
2023-01-10T04:04:53.918Z,7.20
2023-01-10T04:07:20.381Z,7.18
2023-01-10T04:09:46.771Z,7.12
2023-01-10T04:12:13.100Z,7.04
2023-01-10T04:14:39.556Z,6.93
2023-01-10T04:17:06.080Z,6.87
2023-01-10T04:19:32.523Z,6.84
2023-01-10T04:21:58.922Z,6.82
2023-01-10T04:24:25.689Z,6.80
2023-01-10T04:26:52.032Z,6.78
2023-01-10T04:29:18.452Z,6.83
2023-01-10T04:31:44.922Z,6.83
2023-01-10T04:34:11.375Z,6.89
2023-01-10T04:36:37.904Z,6.84
2023-01-10T04:39:04.821Z,6.78
2023-01-10T04:41:31.241Z,6.85
2023-01-10T04:43:57.675Z,6.85
2023-01-10T04:46:24.134Z,6.90
2023-01-10T04:48:50.657Z,6.92
2023-01-10T04:51:17.055Z,6.97
2023-01-10T04:53:43.433Z,7.06
2023-01-10T04:56:16.618Z,7.08
2023-01-10T04:58:42.977Z,7.03
2023-01-10T05:01:15.177Z,7.06
2023-01-10T05:03:41.840Z,7.11
2023-01-10T05:06:09.201Z,7.13
2023-01-10T05:08:35.730Z,7.12
2023-01-10T05:11:02.172Z,7.09
2023-01-10T05:13:28.528Z,7.13
2023-01-10T05:15:56.582Z,7.11
2023-01-10T05:18:22.987Z,7.11
2023-01-10T05:20:49.442Z,7.10
2023-01-10T05:23:15.848Z,7.07
2023-01-10T05:25:42.699Z,7.07
2023-01-10T05:28:12.634Z,7.10
2023-01-10T05:30:39.142Z,7.12
2023-01-10T05:33:06.051Z,7.13
2023-01-10T05:35:33.631Z,7.19
2023-01-10T05:38:00.222Z,7.13
2023-01-10T05:40:26.567Z,7.08
2023-01-10T05:42:52.985Z,7.04
2023-01-10T05:45:19.365Z,7.07
2023-01-10T05:47:45.785Z,7.09
2023-01-10T05:50:12.549Z,7.10
2023-01-10T05:52:38.997Z,7.11
2023-01-10T05:55:05.554Z,7.13
2023-01-10T05:57:31.967Z,7.19
2023-01-10T05:59:58.447Z,7.15
2023-01-10T06:02:26.403Z,6.99
2023-01-10T06:04:55.183Z,6.98
2023-01-10T06:07:22.762Z,6.98
2023-01-10T06:09:51.383Z,6.94
2023-01-10T06:12:19.071Z,6.94
2023-01-10T06:14:46.019Z,6.89
2023-01-10T06:17:12.469Z,6.86
2023-01-10T06:19:38.912Z,6.87
2023-01-10T06:22:05.687Z,6.92
2023-01-10T06:24:32.287Z,6.91
2023-01-10T06:26:58.684Z,6.94
2023-01-10T06:29:25.168Z,6.95
2023-01-10T06:31:51.557Z,6.96
2023-01-10T06:34:17.995Z,6.96
2023-01-10T06:36:44.348Z,6.88
2023-01-10T06:39:10.837Z,6.87
2023-01-10T06:41:37.325Z,6.83
2023-01-10T06:44:03.786Z,6.82
2023-01-10T06:46:30.273Z,6.75
2023-01-10T06:48:56.639Z,6.79
2023-01-10T06:51:23.058Z,6.75
2023-01-10T06:53:49.576Z,6.73
2023-01-10T06:56:16.814Z,6.71
2023-01-10T06:58:43.241Z,6.65
2023-01-10T07:01:14.650Z,6.68
2023-01-10T07:03:44.888Z,6.70
2023-01-10T07:06:11.561Z,6.73
2023-01-10T07:08:42.646Z,6.78
2023-01-10T07:11:09.610Z,6.67
2023-01-10T07:13:36.978Z,6.66
2023-01-10T07:16:08.263Z,6.64
2023-01-10T07:18:36.114Z,6.65
2023-01-10T07:21:02.544Z,6.62
2023-01-10T07:23:31.006Z,6.71
2023-01-10T07:26:03.055Z,6.72
2023-01-10T07:28:29.551Z,6.71
2023-01-10T07:31:00.008Z,6.65
2023-01-10T07:33:31.252Z,6.64
2023-01-10T07:35:58.384Z,6.63
2023-01-10T07:38:24.949Z,6.64
2023-01-10T07:40:51.615Z,6.62
2023-01-10T07:43:18.025Z,6.63
2023-01-10T07:45:44.741Z,6.62
2023-01-10T07:48:11.120Z,6.66
2023-01-10T07:50:38.222Z,6.72
2023-01-10T07:53:06.896Z,6.73
2023-01-10T07:55:36.117Z,6.74
2023-01-10T07:58:02.609Z,6.82
2023-01-10T08:00:28.961Z,6.88
2023-01-10T08:02:56.564Z,6.88
2023-01-10T08:05:23.527Z,6.91
2023-01-10T08:07:49.878Z,6.92
2023-01-10T08:10:16.890Z,6.97
2023-01-10T08:12:43.280Z,6.97
2023-01-10T08:15:10.227Z,7.02
2023-01-10T08:17:36.675Z,7.03
2023-01-10T08:20:03.451Z,7.09
2023-01-10T08:22:29.917Z,7.09
2023-01-10T08:24:56.268Z,7.07
2023-01-10T08:27:22.916Z,7.04
2023-01-10T08:29:49.596Z,7.03
2023-01-10T08:32:15.984Z,7.03
2023-01-10T08:34:42.427Z,7.02
2023-01-10T08:37:14.291Z,7.03
2023-01-10T08:39:40.983Z,7.09
2023-01-10T08:42:07.574Z,7.14
2023-01-10T08:44:34.006Z,7.14
2023-01-10T08:47:00.423Z,7.12
2023-01-10T08:49:27.500Z,7.15
2023-01-10T08:51:53.866Z,7.15
2023-01-10T08:54:20.352Z,7.21
2023-01-10T08:56:46.695Z,7.23
2023-01-10T08:59:13.438Z,7.22
2023-01-10T09:01:39.951Z,7.21
2023-01-10T09:04:06.568Z,7.20
2023-01-10T09:06:32.937Z,7.18
2023-01-10T09:08:59.479Z,7.21
2023-01-10T09:11:25.953Z,7.27
2023-01-10T09:13:52.425Z,7.31
2023-01-10T09:16:19.063Z,7.32
2023-01-10T09:18:46.033Z,7.36
2023-01-10T09:21:12.459Z,7.41
2023-01-10T09:23:40.435Z,7.41
2023-01-10T09:26:06.916Z,7.43
2023-01-10T09:28:33.424Z,7.44
2023-01-10T09:31:01.017Z,7.46
2023-01-10T09:33:34.993Z,7.48
2023-01-10T09:36:13.606Z,7.50
2023-01-10T09:38:40.219Z,7.56
2023-01-10T09:41:33.156Z,7.66
2023-01-10T09:44:05.336Z,7.68
2023-01-10T09:47:08.415Z,7.73
2023-01-10T09:49:54.413Z,7.69
2023-01-10T09:52:28.889Z,7.64
2023-01-10T09:54:58.540Z,7.58
2023-01-10T09:57:25.207Z,7.55
2023-01-10T09:59:53.850Z,7.52
2023-01-10T10:02:41.629Z,7.48
2023-01-10T10:05:16.554Z,7.51
2023-01-10T10:07:43.098Z,7.53
2023-01-10T10:10:22.030Z,7.57
2023-01-10T10:13:11.721Z,7.59
2023-01-10T10:15:55.280Z,7.53
2023-01-10T10:18:37.342Z,7.56
2023-01-10T10:21:12.917Z,7.56
2023-01-10T10:24:14.195Z,7.65
2023-01-10T10:27:09.763Z,7.69
2023-01-10T10:29:55.165Z,7.67
2023-01-10T10:32:30.608Z,7.59
2023-01-10T10:35:08.016Z,7.63
2023-01-10T10:37:43.094Z,7.73
2023-01-10T10:40:25.931Z,7.83
2023-01-10T10:42:55.503Z,7.82
2023-01-10T10:45:25.475Z,7.72
2023-01-10T10:47:57.452Z,7.70
2023-01-10T10:50:31.768Z,7.72
2023-01-10T10:53:01.862Z,7.64
2023-01-10T10:55:33.305Z,7.58
2023-01-10T10:58:02.013Z,7.64
2023-01-10T11:00:29.658Z,7.68
2023-01-10T11:03:18.710Z,7.65
2023-01-10T11:05:47.083Z,7.60
2023-01-10T11:08:17.105Z,7.52
2023-01-10T11:10:48.617Z,7.55
2023-01-10T11:13:43.759Z,7.56
2023-01-10T11:16:27.099Z,7.50
2023-01-10T11:19:23.506Z,7.61
2023-01-10T11:21:59.085Z,7.67
2023-01-10T11:24:25.439Z,7.68
2023-01-10T11:26:52.454Z,7.73
2023-01-10T11:29:27.539Z,7.77
2023-01-10T11:31:55.935Z,7.86
2023-01-10T11:34:35.553Z,7.85
2023-01-10T11:37:18.038Z,7.86
2023-01-10T11:39:45.077Z,7.87
2023-01-10T11:42:31.026Z,7.84
2023-01-10T11:45:17.356Z,7.86
2023-01-10T11:47:48.749Z,7.88
2023-01-10T11:50:21.933Z,7.84
2023-01-10T11:52:50.105Z,7.85
2023-01-10T11:55:21.283Z,7.87
2023-01-10T11:58:08.977Z,7.85
2023-01-10T12:00:45.970Z,7.85
2023-01-10T12:03:18.617Z,7.87
2023-01-10T12:05:52.750Z,7.93
2023-01-10T12:08:31.473Z,7.93
2023-01-10T12:11:03.850Z,7.95
2023-01-10T12:13:44.795Z,8.09
2023-01-10T12:16:30.556Z,8.06
2023-01-10T12:19:02.466Z,8.11
2023-01-10T12:21:38.525Z,8.12
2023-01-10T12:24:14.285Z,8.11
2023-01-10T12:26:41.564Z,8.16
2023-01-10T12:29:15.652Z,8.11
2023-01-10T12:31:42.069Z,8.12
2023-01-10T12:34:20.192Z,8.17
2023-01-10T12:36:58.128Z,8.27
2023-01-10T12:39:35.200Z,8.21
2023-01-10T12:42:26.334Z,8.12
2023-01-10T12:45:17.182Z,8.13
2023-01-10T12:47:46.634Z,8.14
2023-01-10T12:50:17.176Z,8.13
2023-01-10T12:52:57.397Z,8.08
2023-01-10T12:55:30.362Z,8.12
2023-01-10T12:58:00.516Z,8.13
2023-01-10T13:00:37.626Z,8.20
2023-01-10T13:03:13.955Z,8.21
2023-01-10T13:05:41.186Z,8.22
2023-01-10T13:08:13.859Z,8.23
2023-01-10T13:10:47.143Z,8.23
2023-01-10T13:13:42.258Z,8.27
2023-01-10T13:16:32.898Z,8.26
2023-01-10T13:19:10.505Z,8.30
2023-01-10T13:21:41.896Z,8.28
2023-01-10T13:24:24.146Z,8.28
2023-01-10T13:27:00.101Z,8.32
2023-01-10T13:29:43.528Z,8.39
2023-01-10T13:32:33.182Z,8.41
2023-01-10T13:35:16.257Z,8.44
2023-01-10T13:37:50.488Z,8.50
2023-01-10T13:40:28.056Z,8.52
2023-01-10T13:43:34.380Z,8.56
2023-01-10T13:46:16.120Z,8.47
2023-01-10T13:48:51.357Z,8.40
2023-01-10T13:51:20.344Z,8.40
2023-01-10T13:53:51.715Z,8.43
2023-01-10T13:56:31.780Z,8.40
2023-01-10T13:59:16.939Z,8.34
2023-01-10T14:02:08.163Z,8.33
2023-01-10T14:04:39.633Z,8.31
2023-01-10T14:07:23.797Z,8.33
2023-01-10T14:09:51.740Z,8.30
2023-01-10T14:12:26.288Z,8.23
2023-01-10T14:15:06.877Z,8.22
2023-01-10T14:17:35.848Z,8.14
2023-01-10T14:20:20.156Z,8.20
2023-01-10T14:23:08.306Z,8.25
2023-01-10T14:25:37.151Z,8.27
2023-01-10T14:28:05.232Z,8.25
2023-01-10T14:30:40.263Z,8.21
2023-01-10T14:33:20.365Z,8.21
2023-01-10T14:35:50.974Z,8.20
2023-01-10T14:38:24.722Z,8.22
2023-01-10T14:40:55.516Z,8.23
2023-01-10T14:43:27.254Z,8.26
2023-01-10T14:46:12.451Z,8.27
2023-01-10T14:48:50.317Z,8.29
2023-01-10T14:51:23.115Z,8.29
2023-01-10T14:54:14.549Z,8.27
2023-01-10T14:56:43.821Z,8.29
2023-01-10T14:59:27.831Z,8.18
2023-01-10T15:02:13.848Z,8.20
2023-01-10T15:04:51.619Z,8.21
2023-01-10T15:07:22.613Z,8.25
2023-01-10T15:09:56.249Z,8.27
2023-01-10T15:12:26.760Z,8.24
2023-01-10T15:15:07.529Z,8.19
2023-01-10T15:17:37.007Z,8.19
2023-01-10T15:20:04.474Z,8.23
2023-01-10T15:22:36.483Z,8.18
2023-01-10T15:25:18.137Z,8.10
2023-01-10T15:27:46.592Z,8.08
2023-01-10T15:30:18.705Z,8.04
2023-01-10T15:32:49.423Z,7.98
2023-01-10T15:35:20.444Z,7.96
2023-01-10T15:38:02.439Z,7.97
2023-01-10T15:40:34.626Z,7.98
2023-01-10T15:43:11.432Z,7.97
2023-01-10T15:45:39.937Z,7.94
2023-01-10T15:48:25.557Z,7.92
2023-01-10T15:51:11.559Z,7.94
2023-01-10T15:53:57.865Z,7.89
2023-01-10T15:56:28.712Z,7.87
2023-01-10T15:58:56.712Z,7.81
2023-01-10T16:01:23.531Z,7.76
2023-01-10T16:03:56.748Z,7.79
2023-01-10T16:06:30.421Z,7.82
2023-01-10T16:08:59.795Z,7.77
2023-01-10T16:11:47.991Z,7.75
2023-01-10T16:14:14.379Z,7.76
2023-01-10T16:16:40.908Z,7.77
2023-01-10T16:19:07.292Z,7.81
2023-01-10T16:21:41.374Z,7.84
2023-01-10T16:24:16.667Z,7.86
2023-01-10T16:26:43.253Z,7.90
2023-01-10T16:29:11.579Z,7.81
2023-01-10T16:31:38.064Z,7.76
2023-01-10T16:34:04.429Z,7.76
2023-01-10T16:36:30.930Z,7.77
2023-01-10T16:38:57.353Z,7.81
2023-01-10T16:41:42.423Z,7.78
2023-01-10T16:44:08.790Z,7.74
2023-01-10T16:46:35.467Z,7.69
2023-01-10T16:49:01.922Z,7.70
2023-01-10T16:51:32.260Z,7.76
2023-01-10T16:53:58.704Z,7.72
2023-01-10T16:56:27.812Z,7.71
2023-01-10T16:58:54.782Z,7.74
2023-01-10T17:01:25.201Z,7.78
2023-01-10T17:03:52.063Z,7.77
2023-01-10T17:06:19.139Z,7.73
2023-01-10T17:08:45.685Z,7.70
2023-01-10T17:11:20.522Z,7.76
2023-01-10T17:13:47.185Z,7.76
2023-01-10T17:16:13.752Z,7.80
2023-01-10T17:18:40.322Z,7.82
2023-01-10T17:21:06.747Z,7.80
2023-01-10T17:23:33.169Z,7.81
2023-01-10T17:26:01.561Z,7.82
2023-01-10T17:28:29.010Z,7.80
2023-01-10T17:30:56.284Z,7.76
2023-01-10T17:33:23.073Z,7.76
2023-01-10T17:35:54.605Z,7.70
2023-01-10T17:38:22.095Z,7.69
2023-01-10T17:40:48.906Z,7.71
2023-01-10T17:43:16.613Z,7.74
2023-01-10T17:45:44.937Z,7.75
2023-01-10T17:48:18.764Z,7.72
2023-01-10T17:50:47.619Z,7.70
2023-01-10T17:53:15.013Z,7.69
2023-01-10T17:55:45.800Z,7.72
2023-01-10T17:58:12.573Z,7.75
2023-01-10T18:00:39.291Z,7.71
2023-01-10T18:03:06.358Z,7.64
2023-01-10T18:05:35.020Z,7.62
2023-01-10T18:08:06.268Z,7.64
2023-01-10T18:10:33.834Z,7.67
2023-01-10T18:13:02.578Z,7.60
2023-01-10T18:15:29.858Z,7.56
2023-01-10T18:17:56.302Z,7.59
2023-01-10T18:20:22.692Z,7.56
2023-01-10T18:23:07.914Z,7.58
2023-01-10T18:25:34.276Z,7.54
2023-01-10T18:28:00.687Z,7.55
2023-01-10T18:30:27.505Z,7.57
2023-01-10T18:32:54.591Z,7.57
2023-01-10T18:35:22.153Z,7.57
2023-01-10T18:37:48.780Z,7.57
2023-01-10T18:40:15.144Z,7.57
2023-01-10T18:42:41.681Z,7.58
2023-01-10T18:45:08.577Z,7.59
2023-01-10T18:47:35.142Z,7.64
2023-01-10T18:50:01.564Z,7.62
2023-01-10T18:52:28.100Z,7.60
2023-01-10T18:54:55.505Z,7.64
2023-01-10T18:57:22.061Z,7.64
2023-01-10T18:59:48.464Z,7.68
2023-01-10T19:02:15.479Z,7.66
2023-01-10T19:04:42.011Z,7.63
2023-01-10T19:07:08.439Z,7.59
2023-01-10T19:09:34.880Z,7.56
2023-01-10T19:12:01.366Z,7.59
2023-01-10T19:14:27.879Z,7.62
2023-01-10T19:16:54.225Z,7.64
2023-01-10T19:19:20.836Z,7.64
2023-01-10T19:21:47.212Z,7.67
2023-01-10T19:24:28.827Z,7.65
2023-01-10T19:26:56.413Z,7.66
2023-01-10T19:29:23.829Z,7.69
2023-01-10T19:31:50.800Z,7.66
2023-01-10T19:34:17.528Z,7.67
2023-01-10T19:36:45.502Z,7.69
2023-01-10T19:39:12.937Z,7.77
2023-01-10T19:41:39.840Z,7.79
2023-01-10T19:44:10.579Z,7.76
2023-01-10T19:46:38.967Z,7.74
2023-01-10T19:49:07.881Z,7.75
2023-01-10T19:51:37.817Z,7.73
2023-01-10T19:54:05.796Z,7.71
2023-01-10T19:56:32.409Z,7.68
2023-01-10T19:58:59.082Z,7.69
2023-01-10T20:01:28.123Z,7.69
2023-01-10T20:03:58.860Z,7.68
2023-01-10T20:06:27.052Z,7.70
2023-01-10T20:08:54.165Z,7.71
2023-01-10T20:11:22.185Z,7.73
2023-01-10T20:13:49.357Z,7.74
2023-01-10T20:16:21.227Z,7.71
2023-01-10T20:18:48.934Z,7.60
2023-01-10T20:21:17.831Z,7.53
2023-01-10T20:23:44.969Z,7.52
2023-01-10T20:26:14.899Z,7.51
2023-01-10T20:28:42.600Z,7.39
2023-01-10T20:31:11.842Z,7.34
2023-01-10T20:33:38.225Z,7.24
2023-01-10T20:36:08.462Z,7.14
2023-01-10T20:38:36.199Z,7.01
2023-01-10T20:41:14.700Z,7.00
2023-01-10T20:43:41.594Z,6.96
2023-01-10T20:46:10.828Z,6.89
2023-01-10T20:48:38.349Z,6.92
2023-01-10T20:51:05.770Z,6.98
2023-01-10T20:53:32.315Z,6.95
2023-01-10T20:56:04.103Z,6.91
2023-01-10T20:58:30.661Z,6.85
2023-01-10T21:00:57.086Z,6.82
2023-01-10T21:03:23.458Z,6.77
2023-01-10T21:05:51.122Z,6.78
2023-01-10T21:08:18.216Z,6.76
2023-01-10T21:10:46.309Z,6.69
2023-01-10T21:13:13.110Z,6.81
2023-01-10T21:15:44.164Z,6.72
2023-01-10T21:18:12.729Z,6.73
2023-01-10T21:20:43.892Z,6.70
2023-01-10T21:23:10.750Z,6.70
2023-01-10T21:25:37.486Z,6.72
2023-01-10T21:28:09.386Z,6.73
2023-01-10T21:30:37.320Z,6.74
2023-01-10T21:33:04.052Z,6.70
2023-01-10T21:35:30.472Z,6.68
2023-01-10T21:37:57.522Z,6.73
2023-01-10T21:40:28.965Z,6.79
2023-01-10T21:42:55.432Z,6.79
2023-01-10T21:45:22.458Z,6.83
2023-01-10T21:47:49.776Z,6.85
2023-01-10T21:50:17.403Z,6.78
2023-01-10T21:52:43.865Z,6.71
2023-01-10T21:55:13.626Z,6.71
2023-01-10T21:57:40.032Z,6.75
2023-01-10T22:00:07.280Z,6.72
2023-01-10T22:02:38.061Z,6.65
2023-01-10T22:05:04.836Z,6.63
2023-01-10T22:07:31.272Z,6.57
2023-01-10T22:09:57.675Z,6.50
2023-01-10T22:12:25.324Z,6.48
2023-01-10T22:14:52.003Z,6.44
2023-01-10T22:17:18.460Z,6.44
2023-01-10T22:19:44.927Z,6.34
2023-01-10T22:22:11.649Z,6.28
2023-01-10T22:24:38.919Z,6.21
2023-01-10T22:27:05.307Z,6.21
2023-01-10T22:29:31.911Z,6.21
2023-01-10T22:31:58.335Z,6.18
2023-01-10T22:34:24.945Z,6.18
2023-01-10T22:36:51.361Z,6.18
2023-01-10T22:39:17.850Z,6.19
2023-01-10T22:41:44.211Z,6.15
2023-01-10T22:44:22.841Z,6.15
2023-01-10T22:46:51.296Z,6.14
2023-01-10T22:49:18.223Z,6.17
2023-01-10T22:51:45.082Z,6.19
2023-01-10T22:54:13.176Z,6.16
2023-01-10T22:56:39.684Z,6.16
2023-01-10T22:59:06.059Z,6.20
2023-01-10T23:01:32.448Z,6.16
2023-01-10T23:03:58.893Z,6.08
2023-01-10T23:06:25.571Z,6.11
2023-01-10T23:08:52.151Z,6.10
2023-01-10T23:11:20.395Z,6.10
2023-01-10T23:13:47.475Z,6.23
2023-01-10T23:16:17.290Z,6.23
2023-01-10T23:18:43.909Z,6.30
2023-01-10T23:21:10.455Z,6.33
2023-01-10T23:23:36.999Z,6.34
2023-01-10T23:26:07.422Z,6.29
2023-01-10T23:28:36.631Z,6.27
2023-01-10T23:31:04.927Z,6.28
2023-01-10T23:33:32.206Z,6.31
2023-01-10T23:35:59.146Z,6.30
2023-01-10T23:38:26.228Z,6.34
2023-01-10T23:40:52.651Z,6.39
2023-01-10T23:43:19.129Z,6.40
2023-01-10T23:45:45.678Z,6.38
2023-01-10T23:48:12.314Z,6.40
2023-01-10T23:50:38.825Z,6.46
2023-01-10T23:53:06.108Z,6.44
2023-01-10T23:55:33.247Z,6.44
2023-01-10T23:58:00.126Z,6.43
